Garryowen, MT

9:21 PM MDT on October 01, 2014 (GMT -0600)
Sheridan County | Change Station
CLOSE
Current Station
Airport
Location: Sheridan,
Elevation: 3967 ft
Nearby Weather Stations

Elev 3967 ft 44.76 °N, 106.97 °W | Updated 28 minutes ago

Clear
Clear
38 °F
Feels Like 32 °F
N
8
Wind Variable Wind from WSW

Today
High -- | Low -- °F
--% Chance of Precip.
Yesterday
High -- | Low -- °F
Precip. -- in
7:07 AM 6:49 PM
First Quarter, 54% visible
Pressure 30.04 in
Visibility 10.0 miles
Clouds Clear
Windchill 32 °F
Dew Point 32 °F
Humidity 79%
Rainfall 0.02 in
Snow Depth 0 in , 0 in , 1 in
UV 0 out of 12
Pollen 3.40 out of 12
Air Quality Not available.
Flu Activity Not available.
METAR KSHR 020253Z AUTO 24007KT 10SM CLR 03/00 A3001 RMK AO2 SLP172 T00330000 53012

More Conditions Fewer Conditions

Pressure 30.04 in
Visibility 10.0 miles
Clouds Clear
Windchill 32 °F
Dew Point 32 °F
Humidity 79%
Rainfall 0.02 in
Snow Depth 0 in , 0 in , 1 in
UV 0 out of 12
Pollen 3.40 out of 12
Air Quality Not available.
Flu Activity Not available.
METAR KSHR 020253Z AUTO 24007KT 10SM CLR 03/00 A3001 RMK AO2 SLP172 T00330000 53012

More Conditions Fewer Conditions

10-Day Weather Forecast

Almanac

Astronomy

Oct. 01, 2014 Rise Set
Actual Time 7:07 AM MDT 6:49 PM MDT
Civil Twilight 6:37 AM MDT 7:18 PM MDT
Nautical Twilight 6:03 AM MDT 7:52 PM MDT
Astronomical Twilight 5:28 AM MDT 8:27 PM MDT
Moon 2:23 PM MDT (10/1) No Moon Set
Length of Visible Light 12h 40m
Length of Day
11h 41m
Tomorrow will be 3m 9s shorter.
First Quarter, 54% of the Moon is Illuminated
Today
First Quarter
Oct 8
Full
Oct 15
Last Quarter
Oct 23
New
Oct 30
First Quarter

Today's Extremes

State Highs State Lows

Community

WunderPhotos

Upload Photos

1,758,161 photos uploaded!

WunderBlogs® & News

Nearby

Snow Depth

Station Depth Elevation
Beagle Springs 0 in 8850 ft
Short Creek 0 in 7000 ft
Black Pine 1 in 7210 ft
Albro Lake 0 in 8300 ft
Monument Peak 0 in 8850 ft

Earthquake Activity

City Distance Mag. Time & Date
No recent earthquake activity has been reported nearby.
Minimum magnitude displayed is 2.5.

Coastal Water Temperatures

Place Temperature
No Stations Reporting

Nearby Weather Stations